sensor_id;sensor_type;location;lat;lon;timestamp;P1;durP1;ratioP1;P2;durP2;ratioP2
13868;SDS011;7004;48.206;16.402;2023-04-06T00:02:23;8.70;;;4.90;;
13868;SDS011;7004;48.206;16.402;2023-04-06T00:04:49;9.60;;;4.83;;
13868;SDS011;7004;48.206;16.402;2023-04-06T00:07:16;8.73;;;5.33;;
13868;SDS011;7004;48.206;16.402;2023-04-06T00:09:42;9.73;;;5.60;;
13868;SDS011;7004;48.206;16.402;2023-04-06T00:12:08;9.10;;;5.60;;
13868;SDS011;7004;48.206;16.402;2023-04-06T00:14:35;10.77;;;5.50;;
13868;SDS011;7004;48.206;16.402;2023-04-06T00:17:01;9.97;;;5.03;;
13868;SDS011;7004;48.206;16.402;2023-04-06T00:19:27;6.97;;;5.20;;
13868;SDS011;7004;48.206;16.402;2023-04-06T00:21:54;8.13;;;5.10;;
13868;SDS011;7004;48.206;16.402;2023-04-06T00:24:20;10.03;;;5.73;;
13868;SDS011;7004;48.206;16.402;2023-04-06T00:26:46;8.13;;;5.70;;
13868;SDS011;7004;48.206;16.402;2023-04-06T00:29:12;7.60;;;5.03;;
13868;SDS011;7004;48.206;16.402;2023-04-06T00:31:38;7.90;;;5.17;;
13868;SDS011;7004;48.206;16.402;2023-04-06T00:34:05;8.03;;;5.33;;
13868;SDS011;7004;48.206;16.402;2023-04-06T00:36:31;7.07;;;5.57;;
13868;SDS011;7004;48.206;16.402;2023-04-06T00:38:57;8.47;;;5.40;;
13868;SDS011;7004;48.206;16.402;2023-04-06T00:41:23;9.00;;;5.53;;
13868;SDS011;7004;48.206;16.402;2023-04-06T00:43:50;10.23;;;5.70;;
13868;SDS011;7004;48.206;16.402;2023-04-06T00:46:16;7.73;;;5.60;;
13868;SDS011;7004;48.206;16.402;2023-04-06T00:48:42;9.43;;;5.53;;
13868;SDS011;7004;48.206;16.402;2023-04-06T00:51:08;8.10;;;5.50;;
13868;SDS011;7004;48.206;16.402;2023-04-06T00:53:34;8.60;;;5.27;;
13868;SDS011;7004;48.206;16.402;2023-04-06T00:56:00;9.90;;;6.30;;
13868;SDS011;7004;48.206;16.402;2023-04-06T00:58:26;8.87;;;5.87;;
13868;SDS011;7004;48.206;16.402;2023-04-06T01:00:52;10.50;;;5.50;;
13868;SDS011;7004;48.206;16.402;2023-04-06T01:03:19;8.60;;;5.40;;
13868;SDS011;7004;48.206;16.402;2023-04-06T01:05:48;11.13;;;5.80;;
13868;SDS011;7004;48.206;16.402;2023-04-06T01:08:17;9.07;;;5.60;;
13868;SDS011;7004;48.206;16.402;2023-04-06T01:10:43;9.00;;;5.93;;
13868;SDS011;7004;48.206;16.402;2023-04-06T01:13:09;9.47;;;5.97;;
13868;SDS011;7004;48.206;16.402;2023-04-06T01:15:35;9.53;;;5.83;;
13868;SDS011;7004;48.206;16.402;2023-04-06T01:18:04;9.07;;;5.97;;
13868;SDS011;7004;48.206;16.402;2023-04-06T01:20:32;9.10;;;5.83;;
13868;SDS011;7004;48.206;16.402;2023-04-06T01:22:58;8.03;;;5.57;;
13868;SDS011;7004;48.206;16.402;2023-04-06T01:25:24;8.30;;;5.60;;
13868;SDS011;7004;48.206;16.402;2023-04-06T01:27:50;10.53;;;5.73;;
13868;SDS011;7004;48.206;16.402;2023-04-06T01:30:16;8.27;;;5.80;;
13868;SDS011;7004;48.206;16.402;2023-04-06T01:32:43;8.43;;;5.90;;
13868;SDS011;7004;48.206;16.402;2023-04-06T01:35:10;7.97;;;5.60;;
13868;SDS011;7004;48.206;16.402;2023-04-06T01:37:36;7.90;;;5.70;;
13868;SDS011;7004;48.206;16.402;2023-04-06T01:40:02;8.03;;;5.37;;
13868;SDS011;7004;48.206;16.402;2023-04-06T01:42:30;7.67;;;5.67;;
13868;SDS011;7004;48.206;16.402;2023-04-06T01:44:56;7.97;;;5.83;;
13868;SDS011;7004;48.206;16.402;2023-04-06T01:47:22;10.23;;;6.20;;
13868;SDS011;7004;48.206;16.402;2023-04-06T01:49:49;10.10;;;6.10;;
13868;SDS011;7004;48.206;16.402;2023-04-06T01:52:15;7.20;;;5.90;;
13868;SDS011;7004;48.206;16.402;2023-04-06T01:54:41;9.20;;;6.07;;
13868;SDS011;7004;48.206;16.402;2023-04-06T01:57:07;8.90;;;6.73;;
13868;SDS011;7004;48.206;16.402;2023-04-06T01:59:36;7.33;;;5.83;;
13868;SDS011;7004;48.206;16.402;2023-04-06T02:02:02;7.97;;;6.17;;
13868;SDS011;7004;48.206;16.402;2023-04-06T02:04:28;9.80;;;6.33;;
13868;SDS011;7004;48.206;16.402;2023-04-06T02:06:55;10.50;;;5.77;;
13868;SDS011;7004;48.206;16.402;2023-04-06T02:09:21;7.73;;;5.67;;
13868;SDS011;7004;48.206;16.402;2023-04-06T02:11:47;8.57;;;5.90;;
13868;SDS011;7004;48.206;16.402;2023-04-06T02:14:13;9.93;;;6.07;;
13868;SDS011;7004;48.206;16.402;2023-04-06T02:16:40;8.53;;;6.07;;
13868;SDS011;7004;48.206;16.402;2023-04-06T02:19:07;8.97;;;6.10;;
13868;SDS011;7004;48.206;16.402;2023-04-06T02:21:33;10.27;;;6.00;;
13868;SDS011;7004;48.206;16.402;2023-04-06T02:23:59;8.27;;;6.07;;
13868;SDS011;7004;48.206;16.402;2023-04-06T02:26:25;11.03;;;6.83;;
13868;SDS011;7004;48.206;16.402;2023-04-06T02:28:51;9.27;;;6.47;;
13868;SDS011;7004;48.206;16.402;2023-04-06T02:31:18;8.40;;;6.23;;
13868;SDS011;7004;48.206;16.402;2023-04-06T02:33:44;10.07;;;6.10;;
13868;SDS011;7004;48.206;16.402;2023-04-06T02:36:11;10.40;;;6.07;;
13868;SDS011;7004;48.206;16.402;2023-04-06T02:38:37;9.97;;;6.00;;
13868;SDS011;7004;48.206;16.402;2023-04-06T02:41:02;9.90;;;6.27;;
13868;SDS011;7004;48.206;16.402;2023-04-06T02:43:29;9.60;;;6.23;;
13868;SDS011;7004;48.206;16.402;2023-04-06T02:45:55;9.17;;;6.33;;
13868;SDS011;7004;48.206;16.402;2023-04-06T02:48:21;9.07;;;6.17;;
13868;SDS011;7004;48.206;16.402;2023-04-06T02:50:47;10.63;;;6.50;;
13868;SDS011;7004;48.206;16.402;2023-04-06T02:53:13;7.60;;;6.03;;
13868;SDS011;7004;48.206;16.402;2023-04-06T02:55:39;9.27;;;5.77;;
13868;SDS011;7004;48.206;16.402;2023-04-06T02:58:06;9.20;;;6.10;;
13868;SDS011;7004;48.206;16.402;2023-04-06T03:00:32;8.63;;;6.03;;
13868;SDS011;7004;48.206;16.402;2023-04-06T03:02:58;10.63;;;6.03;;
13868;SDS011;7004;48.206;16.402;2023-04-06T03:05:24;9.93;;;6.30;;
13868;SDS011;7004;48.206;16.402;2023-04-06T03:07:50;8.73;;;6.17;;
13868;SDS011;7004;48.206;16.402;2023-04-06T03:10:16;11.67;;;6.00;;
13868;SDS011;7004;48.206;16.402;2023-04-06T03:12:43;9.47;;;5.80;;
13868;SDS011;7004;48.206;16.402;2023-04-06T03:15:09;8.73;;;5.37;;
13868;SDS011;7004;48.206;16.402;2023-04-06T03:17:36;7.87;;;6.13;;
13868;SDS011;7004;48.206;16.402;2023-04-06T03:20:03;8.40;;;5.93;;
13868;SDS011;7004;48.206;16.402;2023-04-06T03:22:30;7.87;;;6.00;;
13868;SDS011;7004;48.206;16.402;2023-04-06T03:24:56;8.63;;;6.07;;
13868;SDS011;7004;48.206;16.402;2023-04-06T03:27:22;12.23;;;6.53;;
13868;SDS011;7004;48.206;16.402;2023-04-06T03:29:48;11.87;;;6.77;;
13868;SDS011;7004;48.206;16.402;2023-04-06T03:32:14;8.50;;;6.20;;
13868;SDS011;7004;48.206;16.402;2023-04-06T03:34:40;8.77;;;6.53;;
13868;SDS011;7004;48.206;16.402;2023-04-06T03:37:07;8.90;;;6.20;;
13868;SDS011;7004;48.206;16.402;2023-04-06T03:39:33;8.03;;;6.00;;
13868;SDS011;7004;48.206;16.402;2023-04-06T03:41:59;8.20;;;6.10;;
13868;SDS011;7004;48.206;16.402;2023-04-06T03:44:25;8.73;;;7.07;;
13868;SDS011;7004;48.206;16.402;2023-04-06T03:46:51;9.30;;;6.53;;
13868;SDS011;7004;48.206;16.402;2023-04-06T03:49:17;11.00;;;6.97;;
13868;SDS011;7004;48.206;16.402;2023-04-06T03:51:43;10.67;;;6.33;;
13868;SDS011;7004;48.206;16.402;2023-04-06T03:54:10;9.83;;;6.20;;
13868;SDS011;7004;48.206;16.402;2023-04-06T03:56:36;10.43;;;6.43;;
13868;SDS011;7004;48.206;16.402;2023-04-06T03:59:02;8.07;;;5.97;;
13868;SDS011;7004;48.206;16.402;2023-04-06T04:01:28;10.13;;;6.57;;
13868;SDS011;7004;48.206;16.402;2023-04-06T04:03:54;8.40;;;6.10;;
13868;SDS011;7004;48.206;16.402;2023-04-06T04:06:21;10.63;;;6.20;;
13868;SDS011;7004;48.206;16.402;2023-04-06T04:08:47;9.97;;;6.07;;
13868;SDS011;7004;48.206;16.402;2023-04-06T04:11:13;9.73;;;6.70;;
13868;SDS011;7004;48.206;16.402;2023-04-06T04:13:40;8.77;;;6.20;;
13868;SDS011;7004;48.206;16.402;2023-04-06T04:16:07;10.83;;;6.77;;
13868;SDS011;7004;48.206;16.402;2023-04-06T04:18:33;13.43;;;7.03;;
13868;SDS011;7004;48.206;16.402;2023-04-06T04:20:59;11.77;;;8.07;;
13868;SDS011;7004;48.206;16.402;2023-04-06T04:23:25;21.30;;;11.07;;
13868;SDS011;7004;48.206;16.402;2023-04-06T04:25:51;17.50;;;12.23;;
13868;SDS011;7004;48.206;16.402;2023-04-06T04:28:17;8.07;;;6.83;;
13868;SDS011;7004;48.206;16.402;2023-04-06T04:30:43;11.30;;;7.83;;
13868;SDS011;7004;48.206;16.402;2023-04-06T04:33:10;12.20;;;7.07;;
13868;SDS011;7004;48.206;16.402;2023-04-06T04:35:36;10.03;;;7.13;;
13868;SDS011;7004;48.206;16.402;2023-04-06T04:38:02;8.57;;;6.77;;
13868;SDS011;7004;48.206;16.402;2023-04-06T04:40:29;9.73;;;7.27;;
13868;SDS011;7004;48.206;16.402;2023-04-06T04:42:55;9.90;;;7.00;;
13868;SDS011;7004;48.206;16.402;2023-04-06T04:45:21;10.43;;;7.47;;
13868;SDS011;7004;48.206;16.402;2023-04-06T04:47:47;9.83;;;7.07;;
13868;SDS011;7004;48.206;16.402;2023-04-06T04:50:13;10.20;;;7.03;;
13868;SDS011;7004;48.206;16.402;2023-04-06T04:52:40;11.47;;;7.37;;
13868;SDS011;7004;48.206;16.402;2023-04-06T04:55:06;10.80;;;7.10;;
13868;SDS011;7004;48.206;16.402;2023-04-06T04:57:32;10.13;;;7.40;;
13868;SDS011;7004;48.206;16.402;2023-04-06T04:59:59;11.37;;;7.33;;
13868;SDS011;7004;48.206;16.402;2023-04-06T05:02:25;12.23;;;7.53;;
13868;SDS011;7004;48.206;16.402;2023-04-06T05:04:52;12.37;;;7.77;;
13868;SDS011;7004;48.206;16.402;2023-04-06T05:07:18;12.07;;;7.80;;
13868;SDS011;7004;48.206;16.402;2023-04-06T05:09:46;9.50;;;7.17;;
13868;SDS011;7004;48.206;16.402;2023-04-06T05:12:12;12.77;;;7.80;;
13868;SDS011;7004;48.206;16.402;2023-04-06T05:14:39;9.43;;;7.43;;
13868;SDS011;7004;48.206;16.402;2023-04-06T05:17:05;12.10;;;7.97;;
13868;SDS011;7004;48.206;16.402;2023-04-06T05:19:31;11.63;;;8.30;;
13868;SDS011;7004;48.206;16.402;2023-04-06T05:21:57;11.43;;;7.37;;
13868;SDS011;7004;48.206;16.402;2023-04-06T05:24:23;10.47;;;7.57;;
13868;SDS011;7004;48.206;16.402;2023-04-06T05:26:50;10.50;;;7.83;;
13868;SDS011;7004;48.206;16.402;2023-04-06T05:29:17;10.60;;;8.07;;
13868;SDS011;7004;48.206;16.402;2023-04-06T05:31:45;10.77;;;7.40;;
13868;SDS011;7004;48.206;16.402;2023-04-06T05:34:12;12.50;;;7.80;;
13868;SDS011;7004;48.206;16.402;2023-04-06T05:36:38;10.40;;;7.47;;
13868;SDS011;7004;48.206;16.402;2023-04-06T05:39:06;14.60;;;8.40;;
13868;SDS011;7004;48.206;16.402;2023-04-06T05:41:32;13.10;;;8.10;;
13868;SDS011;7004;48.206;16.402;2023-04-06T05:43:58;12.20;;;7.83;;
13868;SDS011;7004;48.206;16.402;2023-04-06T05:46:25;9.57;;;7.50;;
13868;SDS011;7004;48.206;16.402;2023-04-06T05:48:51;10.50;;;7.77;;
13868;SDS011;7004;48.206;16.402;2023-04-06T05:51:18;10.57;;;7.50;;
13868;SDS011;7004;48.206;16.402;2023-04-06T05:53:44;9.90;;;7.23;;
13868;SDS011;7004;48.206;16.402;2023-04-06T05:56:10;11.30;;;7.67;;
13868;SDS011;7004;48.206;16.402;2023-04-06T05:58:36;9.80;;;7.20;;
13868;SDS011;7004;48.206;16.402;2023-04-06T06:01:03;11.87;;;7.30;;
13868;SDS011;7004;48.206;16.402;2023-04-06T06:03:30;11.30;;;7.60;;
13868;SDS011;7004;48.206;16.402;2023-04-06T06:06:02;11.53;;;8.20;;
13868;SDS011;7004;48.206;16.402;2023-04-06T06:08:30;9.63;;;7.77;;
13868;SDS011;7004;48.206;16.402;2023-04-06T06:10:56;12.97;;;8.37;;
13868;SDS011;7004;48.206;16.402;2023-04-06T06:13:23;13.53;;;7.93;;
13868;SDS011;7004;48.206;16.402;2023-04-06T06:15:49;13.33;;;7.50;;
13868;SDS011;7004;48.206;16.402;2023-04-06T06:18:15;13.60;;;7.60;;
13868;SDS011;7004;48.206;16.402;2023-04-06T06:20:42;16.40;;;8.03;;
13868;SDS011;7004;48.206;16.402;2023-04-06T06:23:08;10.67;;;7.57;;
13868;SDS011;7004;48.206;16.402;2023-04-06T06:25:35;13.67;;;7.60;;
13868;SDS011;7004;48.206;16.402;2023-04-06T06:28:01;10.60;;;7.13;;
13868;SDS011;7004;48.206;16.402;2023-04-06T06:30:27;10.97;;;7.23;;
13868;SDS011;7004;48.206;16.402;2023-04-06T06:32:53;11.30;;;7.63;;
13868;SDS011;7004;48.206;16.402;2023-04-06T06:35:19;10.77;;;7.40;;
13868;SDS011;7004;48.206;16.402;2023-04-06T06:37:46;14.33;;;8.33;;
13868;SDS011;7004;48.206;16.402;2023-04-06T06:40:12;11.40;;;7.30;;
13868;SDS011;7004;48.206;16.402;2023-04-06T06:42:38;11.17;;;7.80;;
13868;SDS011;7004;48.206;16.402;2023-04-06T06:45:06;10.43;;;7.50;;
13868;SDS011;7004;48.206;16.402;2023-04-06T06:47:33;11.90;;;7.97;;
13868;SDS011;7004;48.206;16.402;2023-04-06T06:49:59;13.13;;;7.87;;
13868;SDS011;7004;48.206;16.402;2023-04-06T06:52:29;11.03;;;7.30;;
13868;SDS011;7004;48.206;16.402;2023-04-06T06:54:55;13.00;;;7.57;;
13868;SDS011;7004;48.206;16.402;2023-04-06T06:57:21;11.83;;;7.97;;
13868;SDS011;7004;48.206;16.402;2023-04-06T06:59:47;15.03;;;7.93;;
13868;SDS011;7004;48.206;16.402;2023-04-06T07:02:13;12.97;;;7.33;;
13868;SDS011;7004;48.206;16.402;2023-04-06T07:04:40;10.20;;;7.23;;
13868;SDS011;7004;48.206;16.402;2023-04-06T07:07:06;10.27;;;8.07;;
13868;SDS011;7004;48.206;16.402;2023-04-06T07:09:34;10.33;;;7.60;;
13868;SDS011;7004;48.206;16.402;2023-04-06T07:12:00;11.43;;;8.27;;
13868;SDS011;7004;48.206;16.402;2023-04-06T07:14:27;9.43;;;7.60;;
13868;SDS011;7004;48.206;16.402;2023-04-06T07:16:53;11.73;;;7.70;;
13868;SDS011;7004;48.206;16.402;2023-04-06T07:19:19;11.10;;;7.20;;
13868;SDS011;7004;48.206;16.402;2023-04-06T07:21:45;10.70;;;7.27;;
13868;SDS011;7004;48.206;16.402;2023-04-06T07:24:11;13.40;;;7.37;;
13868;SDS011;7004;48.206;16.402;2023-04-06T07:26:37;10.80;;;7.07;;
13868;SDS011;7004;48.206;16.402;2023-04-06T07:29:03;11.30;;;7.20;;
13868;SDS011;7004;48.206;16.402;2023-04-06T07:31:29;10.60;;;7.43;;
13868;SDS011;7004;48.206;16.402;2023-04-06T07:33:55;9.83;;;6.97;;
13868;SDS011;7004;48.206;16.402;2023-04-06T07:36:21;9.97;;;6.37;;
13868;SDS011;7004;48.206;16.402;2023-04-06T07:38:50;7.57;;;6.17;;
13868;SDS011;7004;48.206;16.402;2023-04-06T07:41:16;10.23;;;6.10;;
13868;SDS011;7004;48.206;16.402;2023-04-06T07:43:42;7.93;;;5.57;;
13868;SDS011;7004;48.206;16.402;2023-04-06T07:46:08;9.40;;;5.90;;
13868;SDS011;7004;48.206;16.402;2023-04-06T07:48:35;10.57;;;6.37;;
13868;SDS011;7004;48.206;16.402;2023-04-06T07:51:06;8.43;;;5.40;;
13868;SDS011;7004;48.206;16.402;2023-04-06T07:53:32;7.03;;;5.80;;
13868;SDS011;7004;48.206;16.402;2023-04-06T07:55:58;10.07;;;5.83;;
13868;SDS011;7004;48.206;16.402;2023-04-06T07:58:24;7.10;;;5.40;;
13868;SDS011;7004;48.206;16.402;2023-04-06T08:00:54;6.87;;;5.17;;
13868;SDS011;7004;48.206;16.402;2023-04-06T08:03:20;7.40;;;5.17;;
13868;SDS011;7004;48.206;16.402;2023-04-06T08:05:51;9.40;;;5.53;;
13868;SDS011;7004;48.206;16.402;2023-04-06T08:08:18;10.00;;;5.13;;
13868;SDS011;7004;48.206;16.402;2023-04-06T08:10:45;7.37;;;5.43;;
13868;SDS011;7004;48.206;16.402;2023-04-06T08:13:11;6.50;;;5.50;;
13868;SDS011;7004;48.206;16.402;2023-04-06T08:15:37;8.97;;;6.13;;
13868;SDS011;7004;48.206;16.402;2023-04-06T08:18:03;10.20;;;5.20;;
13868;SDS011;7004;48.206;16.402;2023-04-06T08:20:29;7.80;;;5.00;;
13868;SDS011;7004;48.206;16.402;2023-04-06T08:22:55;7.17;;;4.93;;
13868;SDS011;7004;48.206;16.402;2023-04-06T08:25:21;9.90;;;5.50;;
13868;SDS011;7004;48.206;16.402;2023-04-06T08:27:48;9.33;;;5.17;;
13868;SDS011;7004;48.206;16.402;2023-04-06T08:30:14;8.10;;;5.50;;
13868;SDS011;7004;48.206;16.402;2023-04-06T08:32:41;8.47;;;5.40;;
13868;SDS011;7004;48.206;16.402;2023-04-06T08:35:07;7.27;;;5.80;;
13868;SDS011;7004;48.206;16.402;2023-04-06T08:37:34;8.23;;;5.50;;
13868;SDS011;7004;48.206;16.402;2023-04-06T08:40:00;9.83;;;5.23;;
13868;SDS011;7004;48.206;16.402;2023-04-06T08:42:28;10.03;;;5.40;;
13868;SDS011;7004;48.206;16.402;2023-04-06T08:44:57;7.07;;;4.40;;
13868;SDS011;7004;48.206;16.402;2023-04-06T08:47:23;8.67;;;4.97;;
13868;SDS011;7004;48.206;16.402;2023-04-06T08:49:49;7.27;;;5.17;;
13868;SDS011;7004;48.206;16.402;2023-04-06T08:52:17;7.00;;;5.27;;
13868;SDS011;7004;48.206;16.402;2023-04-06T08:54:45;6.77;;;5.50;;
13868;SDS011;7004;48.206;16.402;2023-04-06T08:57:12;9.03;;;6.00;;
13868;SDS011;7004;48.206;16.402;2023-04-06T08:59:40;8.40;;;5.60;;
13868;SDS011;7004;48.206;16.402;2023-04-06T09:02:07;8.70;;;6.00;;
13868;SDS011;7004;48.206;16.402;2023-04-06T09:04:42;7.03;;;5.30;;
13868;SDS011;7004;48.206;16.402;2023-04-06T09:07:13;7.87;;;6.17;;
13868;SDS011;7004;48.206;16.402;2023-04-06T09:09:41;7.97;;;5.37;;
13868;SDS011;7004;48.206;16.402;2023-04-06T09:12:26;7.83;;;5.50;;
13868;SDS011;7004;48.206;16.402;2023-04-06T09:14:56;9.23;;;5.73;;
13868;SDS011;7004;48.206;16.402;2023-04-06T09:17:24;9.13;;;5.33;;
13868;SDS011;7004;48.206;16.402;2023-04-06T09:19:55;8.80;;;5.50;;
13868;SDS011;7004;48.206;16.402;2023-04-06T09:22:23;7.47;;;4.90;;
13868;SDS011;7004;48.206;16.402;2023-04-06T09:24:54;6.53;;;4.33;;
13868;SDS011;7004;48.206;16.402;2023-04-06T09:27:30;9.33;;;4.40;;
13868;SDS011;7004;48.206;16.402;2023-04-06T09:30:05;6.97;;;4.27;;
13868;SDS011;7004;48.206;16.402;2023-04-06T09:35:16;10.10;;;4.53;;
13868;SDS011;7004;48.206;16.402;2023-04-06T09:37:45;5.10;;;3.80;;
13868;SDS011;7004;48.206;16.402;2023-04-06T09:40:13;6.67;;;3.97;;
13868;SDS011;7004;48.206;16.402;2023-04-06T09:42:44;8.67;;;4.00;;
13868;SDS011;7004;48.206;16.402;2023-04-06T09:45:12;10.27;;;4.10;;
13868;SDS011;7004;48.206;16.402;2023-04-06T09:47:39;5.03;;;4.07;;
13868;SDS011;7004;48.206;16.402;2023-04-06T09:50:11;4.03;;;3.47;;
13868;SDS011;7004;48.206;16.402;2023-04-06T09:52:48;9.80;;;3.93;;
13868;SDS011;7004;48.206;16.402;2023-04-06T09:55:23;10.23;;;3.83;;
13868;SDS011;7004;48.206;16.402;2023-04-06T09:58:04;5.33;;;4.00;;
13868;SDS011;7004;48.206;16.402;2023-04-06T10:00:34;4.97;;;3.83;;
13868;SDS011;7004;48.206;16.402;2023-04-06T10:04:18;5.83;;;3.47;;
13868;SDS011;7004;48.206;16.402;2023-04-06T10:06:13;6.70;;;3.67;;
13868;SDS011;7004;48.206;16.402;2023-04-06T10:08:42;8.13;;;3.70;;
13868;SDS011;7004;48.206;16.402;2023-04-06T10:11:10;7.13;;;3.60;;
13868;SDS011;7004;48.206;16.402;2023-04-06T10:13:37;5.13;;;3.23;;
13868;SDS011;7004;48.206;16.402;2023-04-06T10:16:03;5.00;;;3.30;;
13868;SDS011;7004;48.206;16.402;2023-04-06T10:18:31;6.13;;;3.30;;
13868;SDS011;7004;48.206;16.402;2023-04-06T10:21:04;4.17;;;2.80;;
13868;SDS011;7004;48.206;16.402;2023-04-06T10:23:43;3.50;;;3.07;;
13868;SDS011;7004;48.206;16.402;2023-04-06T10:26:19;6.20;;;3.30;;
13868;SDS011;7004;48.206;16.402;2023-04-06T10:28:46;4.80;;;3.20;;
13868;SDS011;7004;48.206;16.402;2023-04-06T10:31:14;9.33;;;3.10;;
13868;SDS011;7004;48.206;16.402;2023-04-06T10:34:01;4.23;;;3.17;;
13868;SDS011;7004;48.206;16.402;2023-04-06T10:36:32;8.10;;;3.20;;
13868;SDS011;7004;48.206;16.402;2023-04-06T10:39:00;4.30;;;3.03;;
13868;SDS011;7004;48.206;16.402;2023-04-06T10:44:20;4.60;;;3.50;;
13868;SDS011;7004;48.206;16.402;2023-04-06T10:46:52;9.13;;;3.40;;
13868;SDS011;7004;48.206;16.402;2023-04-06T10:49:24;5.47;;;3.17;;
13868;SDS011;7004;48.206;16.402;2023-04-06T10:51:54;6.23;;;3.47;;
13868;SDS011;7004;48.206;16.402;2023-04-06T10:54:23;4.90;;;3.27;;
13868;SDS011;7004;48.206;16.402;2023-04-06T10:56:52;4.53;;;2.97;;
13868;SDS011;7004;48.206;16.402;2023-04-06T10:59:19;7.60;;;3.40;;
13868;SDS011;7004;48.206;16.402;2023-04-06T11:01:46;3.70;;;3.23;;
13868;SDS011;7004;48.206;16.402;2023-04-06T11:04:15;6.10;;;3.53;;
13868;SDS011;7004;48.206;16.402;2023-04-06T11:06:49;4.13;;;3.47;;
13868;SDS011;7004;48.206;16.402;2023-04-06T11:09:25;6.43;;;3.60;;
13868;SDS011;7004;48.206;16.402;2023-04-06T11:11:53;4.30;;;3.07;;
13868;SDS011;7004;48.206;16.402;2023-04-06T11:14:21;4.20;;;3.53;;
13868;SDS011;7004;48.206;16.402;2023-04-06T11:16:48;4.67;;;3.27;;
13868;SDS011;7004;48.206;16.402;2023-04-06T11:19:15;4.37;;;3.20;;
13868;SDS011;7004;48.206;16.402;2023-04-06T11:21:46;6.07;;;3.10;;
13868;SDS011;7004;48.206;16.402;2023-04-06T11:26:45;5.43;;;3.17;;
13868;SDS011;7004;48.206;16.402;2023-04-06T11:29:25;4.10;;;3.43;;
13868;SDS011;7004;48.206;16.402;2023-04-06T11:32:03;4.90;;;2.73;;
13868;SDS011;7004;48.206;16.402;2023-04-06T11:34:38;7.40;;;3.40;;
13868;SDS011;7004;48.206;16.402;2023-04-06T11:37:10;4.87;;;3.50;;
13868;SDS011;7004;48.206;16.402;2023-04-06T11:39:38;6.73;;;3.30;;
13868;SDS011;7004;48.206;16.402;2023-04-06T11:42:20;4.87;;;3.50;;
13868;SDS011;7004;48.206;16.402;2023-04-06T11:44:51;5.07;;;3.03;;
13868;SDS011;7004;48.206;16.402;2023-04-06T11:47:36;3.30;;;2.80;;
13868;SDS011;7004;48.206;16.402;2023-04-06T11:50:09;5.90;;;3.30;;
13868;SDS011;7004;48.206;16.402;2023-04-06T11:52:40;5.17;;;2.73;;
13868;SDS011;7004;48.206;16.402;2023-04-06T11:55:25;5.00;;;3.27;;
13868;SDS011;7004;48.206;16.402;2023-04-06T11:57:51;3.70;;;3.00;;
13868;SDS011;7004;48.206;16.402;2023-04-06T12:00:18;4.27;;;3.20;;
13868;SDS011;7004;48.206;16.402;2023-04-06T12:02:45;5.17;;;3.10;;
13868;SDS011;7004;48.206;16.402;2023-04-06T12:05:15;4.23;;;3.20;;
13868;SDS011;7004;48.206;16.402;2023-04-06T12:07:41;3.53;;;2.97;;
13868;SDS011;7004;48.206;16.402;2023-04-06T12:10:08;9.27;;;3.07;;
13868;SDS011;7004;48.206;16.402;2023-04-06T12:12:34;7.30;;;3.07;;
13868;SDS011;7004;48.206;16.402;2023-04-06T12:15:00;5.00;;;3.03;;
13868;SDS011;7004;48.206;16.402;2023-04-06T12:17:27;3.97;;;3.03;;
13868;SDS011;7004;48.206;16.402;2023-04-06T12:19:53;5.37;;;3.03;;
13868;SDS011;7004;48.206;16.402;2023-04-06T12:22:19;4.70;;;3.20;;
13868;SDS011;7004;48.206;16.402;2023-04-06T12:24:45;4.60;;;3.23;;
13868;SDS011;7004;48.206;16.402;2023-04-06T12:27:12;7.37;;;3.60;;
13868;SDS011;7004;48.206;16.402;2023-04-06T12:29:38;7.27;;;3.60;;
13868;SDS011;7004;48.206;16.402;2023-04-06T12:32:05;5.50;;;3.10;;
13868;SDS011;7004;48.206;16.402;2023-04-06T12:34:31;3.27;;;2.97;;
13868;SDS011;7004;48.206;16.402;2023-04-06T12:36:58;8.20;;;3.17;;
13868;SDS011;7004;48.206;16.402;2023-04-06T12:39:25;4.00;;;3.30;;
13868;SDS011;7004;48.206;16.402;2023-04-06T12:41:53;9.63;;;3.33;;
13868;SDS011;7004;48.206;16.402;2023-04-06T12:44:19;7.20;;;3.27;;
13868;SDS011;7004;48.206;16.402;2023-04-06T12:46:45;4.37;;;3.07;;
13868;SDS011;7004;48.206;16.402;2023-04-06T12:49:12;5.60;;;2.93;;
13868;SDS011;7004;48.206;16.402;2023-04-06T12:51:38;3.27;;;2.70;;
13868;SDS011;7004;48.206;16.402;2023-04-06T12:54:04;3.50;;;2.90;;
13868;SDS011;7004;48.206;16.402;2023-04-06T12:56:31;4.63;;;2.90;;
13868;SDS011;7004;48.206;16.402;2023-04-06T12:58:57;6.03;;;3.23;;
13868;SDS011;7004;48.206;16.402;2023-04-06T13:01:24;3.93;;;2.80;;
13868;SDS011;7004;48.206;16.402;2023-04-06T13:03:51;3.10;;;2.80;;
13868;SDS011;7004;48.206;16.402;2023-04-06T13:06:17;4.27;;;3.10;;
13868;SDS011;7004;48.206;16.402;2023-04-06T13:08:43;4.30;;;3.10;;
13868;SDS011;7004;48.206;16.402;2023-04-06T13:11:13;8.83;;;3.40;;
13868;SDS011;7004;48.206;16.402;2023-04-06T13:13:39;3.97;;;2.63;;
13868;SDS011;7004;48.206;16.402;2023-04-06T13:16:07;3.80;;;3.30;;
13868;SDS011;7004;48.206;16.402;2023-04-06T13:18:34;5.20;;;2.87;;
13868;SDS011;7004;48.206;16.402;2023-04-06T13:21:04;3.57;;;2.93;;
13868;SDS011;7004;48.206;16.402;2023-04-06T13:23:31;3.37;;;2.73;;
13868;SDS011;7004;48.206;16.402;2023-04-06T13:28:29;2.63;;;2.33;;
13868;SDS011;7004;48.206;16.402;2023-04-06T13:30:57;6.90;;;3.27;;
13868;SDS011;7004;48.206;16.402;2023-04-06T13:33:24;6.57;;;3.20;;
13868;SDS011;7004;48.206;16.402;2023-04-06T13:35:51;6.27;;;3.20;;
13868;SDS011;7004;48.206;16.402;2023-04-06T13:38:17;3.20;;;2.90;;
13868;SDS011;7004;48.206;16.402;2023-04-06T13:40:43;5.30;;;3.47;;
13868;SDS011;7004;48.206;16.402;2023-04-06T13:43:10;3.47;;;3.00;;
13868;SDS011;7004;48.206;16.402;2023-04-06T13:45:37;5.63;;;3.30;;
13868;SDS011;7004;48.206;16.402;2023-04-06T13:48:04;5.27;;;3.23;;
13868;SDS011;7004;48.206;16.402;2023-04-06T13:50:30;4.60;;;3.43;;
13868;SDS011;7004;48.206;16.402;2023-04-06T13:52:57;4.77;;;3.03;;
13868;SDS011;7004;48.206;16.402;2023-04-06T13:55:24;4.43;;;3.20;;
13868;SDS011;7004;48.206;16.402;2023-04-06T13:57:50;4.70;;;2.97;;
13868;SDS011;7004;48.206;16.402;2023-04-06T14:00:16;3.43;;;3.13;;
13868;SDS011;7004;48.206;16.402;2023-04-06T14:02:43;6.57;;;3.67;;
13868;SDS011;7004;48.206;16.402;2023-04-06T14:05:09;4.43;;;3.60;;
13868;SDS011;7004;48.206;16.402;2023-04-06T14:07:36;6.37;;;3.37;;
13868;SDS011;7004;48.206;16.402;2023-04-06T14:10:02;3.83;;;3.20;;
13868;SDS011;7004;48.206;16.402;2023-04-06T14:12:30;3.17;;;2.87;;
13868;SDS011;7004;48.206;16.402;2023-04-06T14:14:56;4.73;;;3.60;;
13868;SDS011;7004;48.206;16.402;2023-04-06T14:17:22;7.37;;;4.10;;
13868;SDS011;7004;48.206;16.402;2023-04-06T14:19:49;7.60;;;3.53;;
13868;SDS011;7004;48.206;16.402;2023-04-06T14:22:15;8.70;;;3.80;;
13868;SDS011;7004;48.206;16.402;2023-04-06T14:24:42;5.67;;;4.27;;
13868;SDS011;7004;48.206;16.402;2023-04-06T14:27:09;5.13;;;3.93;;
13868;SDS011;7004;48.206;16.402;2023-04-06T14:29:35;4.90;;;4.23;;
13868;SDS011;7004;48.206;16.402;2023-04-06T14:32:01;3.87;;;3.53;;
13868;SDS011;7004;48.206;16.402;2023-04-06T14:34:29;5.53;;;4.20;;
13868;SDS011;7004;48.206;16.402;2023-04-06T14:36:55;4.80;;;4.40;;
13868;SDS011;7004;48.206;16.402;2023-04-06T14:39:21;4.80;;;4.10;;
13868;SDS011;7004;48.206;16.402;2023-04-06T14:41:47;5.70;;;4.30;;
13868;SDS011;7004;48.206;16.402;2023-04-06T14:44:16;6.23;;;4.80;;
13868;SDS011;7004;48.206;16.402;2023-04-06T14:46:43;6.63;;;4.20;;
13868;SDS011;7004;48.206;16.402;2023-04-06T14:49:09;6.73;;;4.60;;
13868;SDS011;7004;48.206;16.402;2023-04-06T14:51:36;7.43;;;4.43;;
13868;SDS011;7004;48.206;16.402;2023-04-06T14:54:02;5.53;;;4.40;;
13868;SDS011;7004;48.206;16.402;2023-04-06T14:56:29;5.40;;;4.40;;